Time;durP1;ratioP1;P1;durP2;ratioP2;P2;SDS_P1;SDS_P2;PMS_P1;PMS_P2;Temp;Humidity;BMP_temperature;BMP_pressure;BME280_temperature;BME280_humidity;BME280_pressure;Samples;Min_cycle;Max_cycle;Signal;HPM_P1;HPM_P2
2023/04/22 13:43:35;;;;;;;4.30;1.60;;;;;;;22.87;40.88;98768.56;5897478;23;20234;-90
2023/04/22 13:46:02;;;;;;;2.60;1.70;;;;;;;22.75;42.70;98769.88;6124754;23;20603;-90
2023/04/22 13:48:42;;;;;;;7.80;2.07;;;;;;;22.31;45.16;98769.31;6126618;23;20569;-90
2023/04/22 13:51:11;;;;;;;7.20;2.10;;;;;;;22.27;45.71;98776.81;6125930;23;20547;-93
2023/04/22 13:53:39;;;;;;;5.50;2.03;;;;;;;22.26;46.37;98772.47;6101567;23;20207;-92
2023/04/22 13:56:17;;;;;;;9.00;2.00;;;;;;;21.95;45.20;98768.69;6101620;23;20151;-93
2023/04/22 13:59:04;;;;;;;;;;;;;;;;;;;;;
2023/04/22 14:24:34;;;;;;;9.27;3.37;;;;;;;20.07;55.96;98818.91;5966793;23;20691;-93
2023/04/22 14:27:10;;;;;;;4.13;2.57;;;;;;;19.74;55.34;98822.94;5987572;23;20147;-92
2023/04/22 14:29:37;;;;;;;7.07;2.50;;;;;;;19.46;57.01;98834.53;5987600;23;20233;-92
2023/04/22 14:32:07;;;;;;;5.37;2.40;;;;;;;19.41;58.13;98852.72;5987148;23;20197;-91
2023/04/22 14:34:34;;;;;;;5.00;2.90;;;;;;;19.13;58.81;98865.00;6023529;23;20503;-91
2023/04/22 14:37:02;;;;;;;5.73;3.00;;;;;;;19.11;59.78;98874.09;6015412;23;20254;-91
2023/04/22 14:39:32;;;;;;;4.97;2.77;;;;;;;18.63;61.09;98874.91;6015394;23;20278;-91
2023/04/22 14:41:58;;;;;;;4.30;2.30;;;;;;;18.17;62.23;98871.97;6015268;23;20587;-90
2023/04/22 14:44:25;;;;;;;4.47;2.47;;;;;;;18.31;62.71;98874.25;6015167;23;20164;-92
2023/04/22 14:46:54;;;;;;;7.20;3.20;;;;;;;18.15;62.51;98860.66;6073500;23;20464;-93
2023/04/22 14:49:21;;;;;;;3.80;2.43;;;;;;;18.41;62.28;98864.50;6160795;23;20581;-92
2023/04/22 14:51:48;;;;;;;8.57;3.30;;;;;;;18.54;61.81;98869.59;6186958;23;20150;-91
2023/04/22 14:54:15;;;;;;;5.93;2.40;;;;;;;18.54;62.03;98861.63;6160355;23;20283;-92
2023/04/22 14:56:41;;;;;;;5.03;3.03;;;;;;;18.62;62.12;98862.63;6161175;23;20158;-92
2023/04/22 14:59:08;;;;;;;6.70;3.87;;;;;;;18.64;62.36;98867.78;6160842;23;20159;-91
2023/04/22 15:01:35;;;;;;;6.87;2.70;;;;;;;18.79;62.68;98872.56;6160640;23;20562;-92
2023/04/22 15:04:04;;;;;;;4.40;2.83;;;;;;;18.91;62.24;98870.63;6161185;23;20177;-91
2023/04/22 15:06:31;;;;;;;4.00;2.80;;;;;;;18.98;62.36;98866.41;6160978;23;20182;-92
2023/04/22 15:08:57;;;;;;;4.83;3.00;;;;;;;19.09;62.61;98860.97;6160346;23;20162;-90
2023/04/22 15:11:23;;;;;;;4.70;2.60;;;;;;;19.01;62.68;98864.34;6160622;23;20164;-91
2023/04/22 15:13:50;;;;;;;6.03;2.80;;;;;;;18.97;62.18;98859.44;6186243;23;20182;-91
2023/04/22 15:16:17;;;;;;;4.23;2.17;;;;;;;19.06;61.72;98860.41;6186409;23;20151;-91
2023/04/22 15:18:55;;;;;;;8.00;2.20;;;;;;;19.09;61.19;98863.63;6185617;23;20574;-90
2023/04/22 15:21:25;;;;;;;8.13;2.57;;;;;;;19.18;61.15;98864.59;6160242;23;20582;-90
2023/04/22 15:23:52;;;;;;;4.87;2.67;;;;;;;19.08;61.77;98861.94;6159814;23;20150;-88
2023/04/22 15:26:19;;;;;;;6.53;3.00;;;;;;;19.00;62.11;98857.34;6186033;23;20154;-90
2023/04/22 15:28:49;;;;;;;5.60;3.03;;;;;;;18.90;63.42;98856.50;6186003;23;20169;-90
2023/04/22 15:31:16;;;;;;;5.10;2.70;;;;;;;18.93;63.59;98850.91;6185830;23;20151;-89
2023/04/22 15:33:58;;;;;;;4.07;1.93;;;;;;;18.84;63.90;98854.38;6185485;23;20216;-89
2023/04/22 15:36:36;;;;;;;3.20;1.63;;;;;;;18.57;64.08;98862.22;6185929;23;20596;-88
2023/04/22 15:39:04;;;;;;;3.37;1.70;;;;;;;18.61;64.16;98858.28;6185562;23;20147;-89
2023/04/22 15:41:42;;;;;;;5.57;2.43;;;;;;;18.68;62.92;98854.13;6160364;23;20479;-89
2023/04/22 15:44:17;;;;;;;5.07;1.93;;;;;;;18.67;63.37;98865.72;6184059;23;20225;-89
2023/04/22 15:46:50;;;;;;;4.23;2.00;;;;;;;18.65;64.13;98861.50;6157365;23;20620;-89
2023/04/22 15:49:16;;;;;;;4.33;2.27;;;;;;;18.46;64.59;98864.94;6157679;23;20463;-90
2023/04/22 15:51:42;;;;;;;2.40;1.40;;;;;;;18.38;64.92;98870.09;6183608;23;20265;-89
2023/04/22 15:54:38;;;;;;;3.80;1.33;;;;;;;18.26;65.43;98864.03;6182807;23;20256;-89
2023/04/22 15:57:05;;;;;;;2.90;1.47;;;;;;;18.35;65.59;98873.00;6183527;23;20581;-88
2023/04/22 15:59:30;;;;;;;3.47;1.50;;;;;;;18.35;65.60;98883.63;6185550;23;20279;-89
2023/04/22 16:01:56;;;;;;;4.17;1.23;;;;;;;18.37;64.94;98877.19;6185449;23;20310;-89
2023/04/22 16:04:22;;;;;;;1.97;1.13;;;;;;;18.34;65.25;98879.31;6185695;23;20209;-89
2023/04/22 16:06:47;;;;;;;3.10;1.10;;;;;;;18.33;65.02;98886.44;6185704;23;20181;-89
2023/04/22 16:09:13;;;;;;;2.63;1.10;;;;;;;18.36;64.74;98887.97;6159230;23;20154;-89
2023/04/22 16:11:38;;;;;;;3.47;1.77;;;;;;;18.27;64.11;98896.72;6185571;23;20158;-89
2023/04/22 16:14:03;;;;;;;9.40;3.33;;;;;;;18.30;64.40;98907.06;6185444;23;20573;-89
2023/04/22 16:16:30;;;;;;;4.87;2.17;;;;;;;17.68;67.26;98917.81;6184942;23;20154;-88
2023/04/22 16:18:57;;;;;;;4.40;1.80;;;;;;;17.29;69.55;98919.31;6185388;23;20161;-88
2023/04/22 16:21:27;;;;;;;15.73;6.23;;;;;;;17.15;70.07;98923.13;6184789;23;20168;-89
2023/04/22 16:23:52;;;;;;;8.53;2.30;;;;;;;17.46;68.99;98917.91;6185028;23;20586;-89
2023/04/22 16:26:18;;;;;;;5.87;2.90;;;;;;;17.64;68.19;98909.25;6185471;23;20150;-89
2023/04/22 16:28:45;;;;;;;9.27;3.77;;;;;;;17.68;67.96;98913.34;6185542;23;20449;-89
2023/04/22 16:31:12;;;;;;;6.87;3.03;;;;;;;17.64;67.92;98914.56;6184968;23;20212;-89
2023/04/22 16:33:37;;;;;;;16.73;6.77;;;;;;;17.64;67.67;98925.16;6184799;23;20192;-89
2023/04/22 16:36:03;;;;;;;11.30;4.50;;;;;;;17.65;67.80;98913.63;6185290;23;20212;-89
2023/04/22 16:38:29;;;;;;;13.33;6.23;;;;;;;17.58;67.12;98914.25;6185469;23;20216;-89
2023/04/22 16:40:54;;;;;;;6.17;3.37;;;;;;;17.23;68.63;98919.81;6184734;23;20539;-89
2023/04/22 16:43:21;;;;;;;7.07;2.47;;;;;;;17.23;69.40;98914.53;6185622;23;20148;-89
2023/04/22 16:45:47;;;;;;;7.77;3.73;;;;;;;17.49;68.68;98923.78;6159219;23;20240;-89
2023/04/22 16:48:13;;;;;;;8.67;3.50;;;;;;;17.40;68.61;98919.25;6184845;23;20230;-89
2023/04/22 16:50:38;;;;;;;5.33;2.80;;;;;;;17.60;68.10;98923.75;6185342;23;20147;-89
2023/04/22 16:53:04;;;;;;;5.23;2.87;;;;;;;17.77;67.75;98923.16;6185493;23;20196;-89
2023/04/22 16:55:29;;;;;;;5.30;2.50;;;;;;;17.91;67.58;98926.44;6184751;23;20518;-89
2023/04/22 16:57:56;;;;;;;4.03;2.50;;;;;;;17.92;67.77;98938.75;6185219;23;20154;-89
2023/04/22 17:00:22;;;;;;;6.63;3.93;;;;;;;17.91;67.77;98921.13;6185089;23;20157;-89
2023/04/22 17:02:55;;;;;;;8.40;3.53;;;;;;;17.93;67.76;98924.50;5122818;27;20563;-90
2023/04/22 17:05:20;;;;;;;6.90;3.43;;;;;;;17.94;67.65;98926.19;5120056;28;20198;-89
2023/04/22 17:07:46;;;;;;;4.93;2.80;;;;;;;17.91;67.15;98921.13;5115738;28;20183;-90
2023/04/22 17:10:11;;;;;;;5.17;2.93;;;;;;;17.92;66.01;98930.78;5112520;27;20268;-90
2023/04/22 17:12:36;;;;;;;5.27;2.47;;;;;;;17.80;66.01;98920.25;5118433;28;20184;-90
2023/04/22 17:15:02;;;;;;;4.30;2.53;;;;;;;17.79;66.31;98925.69;5115685;28;20179;-90
2023/04/22 17:17:28;;;;;;;4.40;2.37;;;;;;;17.78;66.12;98927.50;5115137;27;20176;-90
2023/04/22 17:19:54;;;;;;;7.73;2.60;;;;;;;17.78;66.23;98927.50;5118606;28;20284;-90
2023/04/22 17:22:19;;;;;;;3.97;2.50;;;;;;;17.78;66.15;98932.81;5109385;28;20231;-90
2023/04/22 17:24:45;;;;;;;6.53;2.53;;;;;;;17.79;66.30;98936.31;5110122;28;20634;-90
2023/04/22 17:27:13;;;;;;;11.10;4.90;;;;;;;17.86;66.05;98937.44;5109691;28;20190;-90
2023/04/22 17:29:39;;;;;;;9.27;3.23;;;;;;;17.87;65.87;98940.94;5110522;28;20256;-90
2023/04/22 17:32:05;;;;;;;4.77;2.60;;;;;;;17.96;65.69;98948.09;5110609;28;20259;-90
2023/04/22 17:34:31;;;;;;;6.43;3.20;;;;;;;18.00;65.79;98954.84;5109884;28;20174;-91
2023/04/22 17:36:56;;;;;;;6.43;2.50;;;;;;;17.99;65.46;98954.00;5110244;28;20188;-90
2023/04/22 17:39:21;;;;;;;5.77;3.03;;;;;;;18.01;65.63;98956.50;5110358;28;20184;-90
2023/04/22 17:41:47;;;;;;;4.33;2.53;;;;;;;18.02;65.52;98969.66;5113818;28;20213;-90
2023/04/22 17:44:12;;;;;;;8.57;3.80;;;;;;;18.07;65.71;98974.56;5115911;28;20193;-90
2023/04/22 17:46:39;;;;;;;5.20;2.20;;;;;;;18.09;65.42;98973.44;5116287;27;20195;-90
2023/04/22 17:49:05;;;;;;;4.73;2.20;;;;;;;18.13;65.18;98972.19;5112227;28;20198;-90
2023/04/22 17:51:31;;;;;;;3.83;1.90;;;;;;;18.10;65.64;98976.94;5116367;27;20647;-90
2023/04/22 17:53:56;;;;;;;5.20;2.13;;;;;;;18.02;65.97;98968.81;5120006;28;20266;-90
2023/04/22 17:56:45;;;;;;;4.50;1.80;;;;;;;17.97;66.15;98973.66;5110545;28;20187;-90
2023/04/22 17:59:10;;;;;;;4.77;1.87;;;;;;;17.98;66.09;98980.63;5102707;28;20539;-90
2023/04/22 18:01:37;;;;;;;6.70;3.30;;;;;;;18.01;65.77;98975.06;5115055;28;20240;-90
2023/04/22 18:04:03;;;;;;;4.60;2.13;;;;;;;18.04;65.90;98980.97;5110766;28;20263;-90
2023/04/22 18:06:29;;;;;;;4.80;2.20;;;;;;;18.05;65.85;98965.91;5112586;28;20689;-90
2023/04/22 18:08:55;;;;;;;6.80;3.80;;;;;;;18.03;66.21;98967.84;5111121;28;20782;-90
2023/04/22 18:11:20;;;;;;;7.77;4.60;;;;;;;18.03;66.22;98968.66;5114797;28;20174;-89
2023/04/22 18:13:46;;;;;;;5.70;2.87;;;;;;;18.01;66.31;98965.31;5108833;28;20269;-90
2023/04/22 18:16:11;;;;;;;6.33;2.73;;;;;;;17.97;66.72;98969.19;5101207;28;20195;-89
2023/04/22 18:18:37;;;;;;;5.77;2.63;;;;;;;17.94;66.54;98961.50;5100362;28;20191;-89
2023/04/22 18:21:03;;;;;;;4.63;2.43;;;;;;;17.94;66.64;98964.16;5098501;28;20215;-90
2023/04/22 18:23:28;;;;;;;11.10;3.87;;;;;;;17.87;66.53;98964.81;5103269;28;20187;-90
2023/04/22 18:25:56;;;;;;;23.70;5.90;;;;;;;17.90;66.50;98973.31;5098693;28;20325;-90
2023/04/22 18:28:22;;;;;;;11.80;4.03;;;;;;;17.90;66.17;98968.03;5102777;28;20191;-90
2023/04/22 18:30:47;;;;;;;11.90;3.80;;;;;;;17.94;66.06;98971.25;5100654;28;20250;-90
2023/04/22 18:33:13;;;;;;;8.13;3.43;;;;;;;17.96;65.57;98977.28;5098685;28;20190;-90
2023/04/22 18:35:40;;;;;;;10.27;3.70;;;;;;;17.97;65.50;98984.28;5105557;28;20249;-90
2023/04/22 18:38:05;;;;;;;9.60;3.00;;;;;;;17.94;65.01;98984.53;5096536;28;20233;-90
2023/04/22 18:40:31;;;;;;;6.07;3.10;;;;;;;17.94;65.55;98987.19;5104003;28;20179;-90
2023/04/22 18:42:56;;;;;;;5.33;3.17;;;;;;;17.88;66.38;98993.00;5097876;28;20229;-90
2023/04/22 18:45:22;;;;;;;6.33;2.70;;;;;;;17.86;66.73;98987.84;5100924;28;20176;-90
2023/04/22 18:47:49;;;;;;;10.50;5.27;;;;;;;17.85;66.59;98991.44;5102610;28;20250;-90
2023/04/22 18:50:15;;;;;;;8.60;5.17;;;;;;;17.86;66.70;98995.78;5097789;28;20209;-91
2023/04/22 18:52:41;;;;;;;9.13;5.13;;;;;;;17.91;66.43;98990.09;5102203;28;20227;-91
2023/04/22 18:55:07;;;;;;;7.60;4.13;;;;;;;17.93;66.31;98988.97;5099290;28;20226;-90
2023/04/22 18:57:32;;;;;;;8.53;3.73;;;;;;;17.95;65.83;98986.22;5096110;28;20185;-90
2023/04/22 18:59:57;;;;;;;10.87;4.30;;;;;;;17.93;65.93;98988.97;5099906;28;20194;-91
2023/04/22 19:02:23;;;;;;;9.07;4.43;;;;;;;17.88;66.20;98991.19;5097409;28;20261;-90
2023/04/22 19:04:48;;;;;;;10.37;4.67;;;;;;;17.79;66.78;98991.97;5103716;28;20194;-90
2023/04/22 19:07:15;;;;;;;9.23;4.73;;;;;;;17.68;67.41;98995.53;5096262;28;20188;-90
2023/04/22 19:09:42;;;;;;;9.83;4.57;;;;;;;17.59;67.71;98998.09;5098920;28;20669;-90
2023/04/22 19:12:13;;;;;;;7.13;3.47;;;;;;;17.51;68.06;98997.84;5102696;28;20181;-91
2023/04/22 19:14:40;;;;;;;6.13;3.43;;;;;;;17.52;68.09;98994.25;5100147;28;20186;-90
2023/04/22 19:17:05;;;;;;;11.53;3.80;;;;;;;17.56;67.94;98993.88;5097960;28;20192;-90
2023/04/22 19:19:31;;;;;;;7.27;3.70;;;;;;;17.51;68.28;98992.56;5100852;28;20612;-91
2023/04/22 19:21:56;;;;;;;6.57;3.20;;;;;;;17.43;68.29;98995.84;5101649;28;20653;-90
2023/04/22 19:24:22;;;;;;;8.10;2.63;;;;;;;17.40;68.37;98996.09;5099040;28;20192;-91
2023/04/22 19:26:48;;;;;;;4.57;2.70;;;;;;;17.38;67.94;98995.38;5096452;28;20704;-91
2023/04/22 19:29:14;;;;;;;4.93;2.73;;;;;;;17.37;68.14;99001.66;5131262;27;20267;-91
2023/04/22 19:31:43;;;;;;;5.43;2.00;;;;;;;17.38;68.12;98997.19;5097446;28;20180;-91
2023/04/22 19:34:09;;;;;;;5.47;2.83;;;;;;;17.35;68.03;98998.28;5092521;28;20207;-90
2023/04/22 19:36:35;;;;;;;3.80;2.30;;;;;;;17.32;68.16;99003.00;5097188;28;20240;-88
2023/04/22 19:39:01;;;;;;;4.73;2.10;;;;;;;17.28;68.34;99007.72;5102678;28;20191;-88
2023/04/22 19:41:26;;;;;;;5.60;2.53;;;;;;;17.28;68.21;99006.84;5101459;28;20250;-89
2023/04/22 19:43:54;;;;;;;4.60;2.17;;;;;;;17.26;68.00;99001.69;5101515;28;20184;-88
2023/04/22 19:46:19;;;;;;;4.63;2.43;;;;;;;17.26;68.11;99004.34;5095754;28;20187;-88
2023/04/22 19:48:45;;;;;;;6.03;1.93;;;;;;;17.22;68.29;98996.78;5106553;28;20248;-88
2023/04/22 19:51:11;;;;;;;5.10;2.67;;;;;;;17.23;68.21;99004.59;5101362;28;20651;-88
2023/04/22 19:53:38;;;;;;;5.03;2.53;;;;;;;17.24;67.81;99008.09;5100277;28;20184;-88
2023/04/22 19:56:04;;;;;;;3.90;2.40;;;;;;;17.23;67.98;99007.25;5104999;28;20190;-88
2023/04/22 19:58:30;;;;;;;6.03;2.20;;;;;;;17.23;68.07;99001.94;5098926;28;20192;-88
2023/04/22 20:00:56;;;;;;;4.03;1.80;;;;;;;17.26;68.18;99003.50;5100697;28;20653;-89
2023/04/22 20:03:22;;;;;;;3.17;1.80;;;;;;;17.30;67.88;99003.13;5095016;28;20191;-89
2023/04/22 20:05:48;;;;;;;3.97;2.00;;;;;;;17.33;67.58;99000.22;5099401;28;20184;-89
2023/04/22 20:08:15;;;;;;;4.63;2.17;;;;;;;17.34;67.29;99001.91;5097871;28;20690;-88
2023/04/22 20:10:43;;;;;;;3.87;2.33;;;;;;;17.29;67.39;99006.75;5098320;27;20273;-89
2023/04/22 20:13:09;;;;;;;5.87;2.17;;;;;;;17.29;67.29;99009.41;5098018;28;20766;-89
2023/04/22 20:15:35;;;;;;;8.60;4.10;;;;;;;17.27;67.31;99011.31;5095908;28;20195;-89
2023/04/22 20:18:00;;;;;;;8.23;3.60;;;;;;;17.18;67.48;99017.38;5097048;28;20188;-89
2023/04/22 20:20:26;;;;;;;5.90;3.30;;;;;;;17.08;68.30;99017.28;5096188;28;20605;-89
2023/04/22 20:22:52;;;;;;;4.43;2.50;;;;;;;16.88;69.56;99025.97;5100409;28;20276;-89
2023/04/22 20:25:18;;;;;;;5.23;2.80;;;;;;;16.86;69.60;99021.75;5101467;28;20188;-89
2023/04/22 20:27:44;;;;;;;9.93;4.90;;;;;;;16.77;69.86;99025.16;5096734;28;20187;-89
2023/04/22 20:30:11;;;;;;;10.63;4.03;;;;;;;16.76;69.74;99020.81;5096730;28;20212;-91
2023/04/22 20:32:37;;;;;;;4.80;2.67;;;;;;;16.85;68.97;99025.41;5099637;28;20215;-91
2023/04/22 20:35:05;;;;;;;10.63;2.40;;;;;;;16.91;68.81;99031.03;5098194;28;20210;-91
2023/04/22 20:37:31;;;;;;;6.20;3.20;;;;;;;16.86;68.77;99019.13;5095560;28;20184;-91
2023/04/22 20:40:03;;;;;;;5.10;2.33;;;;;;;16.81;68.42;99013.34;5098995;28;20188;-91
2023/04/22 20:42:29;;;;;;;4.50;2.60;;;;;;;16.75;68.92;99017.31;5088955;28;20199;-91
2023/04/22 20:44:55;;;;;;;5.47;2.30;;;;;;;16.76;68.84;99024.31;5096453;28;20244;-91
2023/04/22 20:47:20;;;;;;;4.70;2.90;;;;;;;16.72;68.83;99024.69;5099660;28;20191;-92
2023/04/22 20:49:46;;;;;;;7.50;2.37;;;;;;;16.74;68.91;99022.75;5103371;28;20180;-91
2023/04/22 20:52:12;;;;;;;5.57;2.73;;;;;;;16.72;69.13;99027.34;5097211;28;20187;-91
2023/04/22 20:54:38;;;;;;;6.97;2.80;;;;;;;16.68;68.97;99023.22;5097948;28;20783;-92
2023/04/22 20:57:05;;;;;;;7.07;2.83;;;;;;;16.75;68.30;99032.34;5096432;28;20652;-90
2023/04/22 20:59:31;;;;;;;5.20;2.43;;;;;;;16.67;68.18;99032.13;5095696;28;20184;-91
2023/04/22 21:01:57;;;;;;;8.00;2.60;;;;;;;16.51;68.33;99033.31;5097771;28;20218;-91
2023/04/22 21:04:26;;;;;;;4.10;2.33;;;;;;;16.42;68.55;99035.84;5103028;28;20220;-90
2023/04/22 21:06:53;;;;;;;10.77;2.87;;;;;;;16.45;68.43;99033.81;5102033;28;20187;-91
2023/04/22 21:09:20;;;;;;;7.40;2.60;;;;;;;16.50;67.95;99041.38;5095381;28;20180;-92
2023/04/22 21:11:49;;;;;;;4.07;2.43;;;;;;;16.46;67.66;99035.47;5079520;28;20188;-91
2023/04/22 21:14:15;;;;;;;5.97;2.73;;;;;;;16.36;68.15;99029.22;5091560;28;20188;-91
2023/04/22 21:16:42;;;;;;;4.60;2.70;;;;;;;16.35;67.69;99043.38;5092370;28;20258;-91
2023/04/22 21:19:08;;;;;;;5.67;2.80;;;;;;;15.96;69.29;99042.00;5093091;28;20171;-90
2023/04/22 21:21:35;;;;;;;5.47;2.60;;;;;;;15.68;71.27;99046.84;5093009;28;20209;-91
2023/04/22 21:24:05;;;;;;;8.97;3.00;;;;;;;15.74;70.94;99046.41;5093125;28;20184;-92
2023/04/22 21:26:31;;;;;;;4.03;2.50;;;;;;;15.93;69.98;99042.25;5092984;28;20236;-91
2023/04/22 21:28:57;;;;;;;6.67;2.67;;;;;;;15.92;69.96;99039.72;5092021;28;20183;-91
2023/04/22 21:31:23;;;;;;;4.73;2.53;;;;;;;15.75;70.28;99032.22;5093064;28;20179;-91
2023/04/22 21:33:49;;;;;;;5.30;2.83;;;;;;;15.81;70.03;99039.69;5091845;28;20186;-91
2023/04/22 21:36:15;;;;;;;7.93;3.17;;;;;;;15.88;69.79;99035.59;5091922;28;20184;-91
2023/04/22 21:38:41;;;;;;;4.37;2.43;;;;;;;15.74;69.56;99036.69;5093085;28;20252;-91
2023/04/22 21:41:06;;;;;;;8.97;2.73;;;;;;;15.63;70.23;99028.69;5091798;28;20210;-91
2023/04/22 21:43:32;;;;;;;6.80;3.13;;;;;;;15.70;69.63;99040.50;5092909;28;20184;-91
2023/04/22 21:45:58;;;;;;;6.13;3.27;;;;;;;15.75;69.45;99029.56;5091876;28;20186;-91
2023/04/22 21:48:23;;;;;;;5.37;2.80;;;;;;;15.44;69.85;99032.78;5093228;28;20186;-90
2023/04/22 21:50:48;;;;;;;9.80;3.00;;;;;;;15.22;71.00;99033.53;5096675;28;20174;-91
2023/04/22 21:53:14;;;;;;;7.07;3.77;;;;;;;15.11;72.01;99038.75;5095555;28;20176;-91
2023/04/22 21:55:40;;;;;;;6.13;3.63;;;;;;;15.05;72.26;99037.38;5096857;28;20179;-91
2023/04/22 21:58:05;;;;;;;7.03;3.50;;;;;;;14.83;72.92;99039.91;5096295;28;20194;-90
2023/04/22 22:00:31;;;;;;;6.23;3.20;;;;;;;14.81;73.18;99040.94;5096365;28;20182;-90
2023/04/22 22:02:56;;;;;;;4.83;2.87;;;;;;;14.74;73.47;99041.38;5096710;28;20249;-90
2023/04/22 22:05:22;;;;;;;4.97;3.20;;;;;;;14.86;73.16;99041.47;5096392;28;20183;-90
2023/04/22 22:07:47;;;;;;;6.33;3.73;;;;;;;14.89;72.90;99036.81;5096306;28;20648;-91
2023/04/22 22:10:19;;;;;;;8.23;4.20;;;;;;;14.89;73.08;99034.16;5095381;28;20267;-91
2023/04/22 22:12:46;;;;;;;6.57;3.87;;;;;;;14.84;73.12;99033.66;5096146;28;20193;-90
2023/04/22 22:15:11;;;;;;;6.00;4.30;;;;;;;14.89;73.16;99039.44;5096335;28;20205;-91
2023/04/22 22:17:38;;;;;;;6.90;3.70;;;;;;;14.94;72.96;99032.03;5095248;28;20757;-91
2023/04/22 22:20:12;;;;;;;7.60;4.43;;;;;;;15.00;72.66;99034.25;5095289;28;20209;-89
2023/04/22 22:22:38;;;;;;;6.50;3.70;;;;;;;15.02;72.42;99029.69;5095245;28;20213;-91
2023/04/22 22:25:06;;;;;;;5.97;4.00;;;;;;;15.04;72.10;99025.13;5095146;28;20247;-91
2023/04/22 22:27:32;;;;;;;7.50;4.13;;;;;;;15.03;71.54;99028.75;5096152;28;20168;-90
2023/04/22 22:29:58;;;;;;;9.47;5.50;;;;;;;15.07;71.39;99035.47;5096141;28;20689;-90
2023/04/22 22:32:23;;;;;;;7.20;4.63;;;;;;;15.07;71.11;99024.91;5095975;28;20179;-90
2023/04/22 22:34:49;;;;;;;9.13;4.67;;;;;;;15.10;71.16;99023.84;5095830;28;20189;-90
2023/04/22 22:37:17;;;;;;;12.20;6.00;;;;;;;15.15;70.94;99027.84;5095658;28;20212;-90
2023/04/22 22:39:43;;;;;;;8.83;5.20;;;;;;;15.12;70.92;99025.41;5096013;28;20186;-91
2023/04/22 22:42:08;;;;;;;8.47;5.80;;;;;;;15.08;71.19;99023.13;5095601;28;20202;-90
2023/04/22 22:44:34;;;;;;;16.77;7.07;;;;;;;15.08;71.36;99023.13;5095491;28;20178;-91
2023/04/22 22:47:00;;;;;;;10.43;5.87;;;;;;;15.16;70.92;99026.91;5095657;28;20174;-90
2023/04/22 22:49:29;;;;;;;8.83;5.87;;;;;;;15.19;70.83;99024.03;5095458;28;20183;-90
2023/04/22 22:51:54;;;;;;;9.80;5.87;;;;;;;15.12;71.10;99022.78;5094722;28;20527;-90
2023/04/22 22:54:32;;;;;;;20.17;7.23;;;;;;;15.09;70.97;99016.91;5095324;28;20193;-90
2023/04/22 22:57:54;;;;;;;12.07;6.10;;;;;;;15.13;70.60;99024.47;5095757;28;20233;-90
2023/04/22 23:01:02;;;;;;;17.13;6.10;;;;;;;15.04;70.37;99026.94;5033313;28;20723;-90
2023/04/22 23:03:27;;;;;;;16.50;6.53;;;;;;;14.94;70.55;99029.41;5017010;28;20229;-90
2023/04/22 23:05:56;;;;;;;18.90;5.93;;;;;;;14.89;70.91;99028.03;5074972;28;20201;-90
2023/04/22 23:08:24;;;;;;;9.83;6.17;;;;;;;14.88;71.05;99024.56;5075165;28;20176;-89
2023/04/22 23:10:52;;;;;;;9.80;5.67;;;;;;;15.03;71.35;99034.03;5074958;28;20182;-90
2023/04/22 23:13:19;;;;;;;8.87;5.40;;;;;;;15.04;71.17;99027.78;5094875;28;20248;-91
2023/04/22 23:15:45;;;;;;;10.80;5.87;;;;;;;14.97;71.82;99034.47;5095150;28;20191;-90
2023/04/22 23:18:12;;;;;;;7.17;4.73;;;;;;;14.87;72.95;99028.16;5094802;28;20184;-90
2023/04/22 23:20:38;;;;;;;11.20;5.43;;;;;;;14.85;73.48;99027.44;5095417;28;20233;-91
2023/04/22 23:23:03;;;;;;;14.13;5.77;;;;;;;14.92;73.44;99023.38;5095084;28;20202;-90
2023/04/22 23:25:32;;;;;;;12.60;6.20;;;;;;;14.97;73.39;99023.06;5094425;28;20202;-90
2023/04/22 23:27:58;;;;;;;13.37;6.00;;;;;;;15.02;73.11;99028.84;5094837;28;20660;-90
2023/04/22 23:30:24;;;;;;;11.53;6.33;;;;;;;15.04;73.68;99019.84;5094662;28;20209;-90
2023/04/22 23:32:55;;;;;;;10.03;5.50;;;;;;;15.07;73.26;99024.06;5094469;28;20179;-90
2023/04/22 23:35:21;;;;;;;11.40;6.73;;;;;;;15.12;72.61;99017.50;5094561;28;20165;-90
2023/04/22 23:37:53;;;;;;;12.33;6.30;;;;;;;15.11;72.63;99021.13;5094584;28;20178;-90
2023/04/22 23:40:22;;;;;;;9.87;5.93;;;;;;;15.09;72.85;99020.38;5093527;28;20180;-91
2023/04/22 23:42:50;;;;;;;10.37;6.00;;;;;;;15.04;72.58;99019.84;5094545;28;20189;-91
2023/04/22 23:45:16;;;;;;;10.17;6.23;;;;;;;14.95;73.19;99023.19;5094158;28;20233;-90
2023/04/22 23:47:42;;;;;;;10.33;6.10;;;;;;;14.94;73.25;99018.84;5093476;28;20181;-91
2023/04/22 23:50:12;;;;;;;12.20;6.57;;;;;;;14.99;73.40;99026.44;5094296;28;20643;-90
2023/04/22 23:52:40;;;;;;;8.53;5.30;;;;;;;14.97;73.50;99023.06;5093306;28;20228;-91
2023/04/22 23:55:17;;;;;;;10.07;5.80;;;;;;;14.98;73.83;99019.47;5092734;28;20661;-92
2023/04/22 23:57:42;;;;;;;9.13;5.97;;;;;;;15.00;73.34;99017.56;5093293;28;20299;-91
